sensor_id;sensor_type;location;lat;lon;timestamp;P1;durP1;ratioP1;P2;durP2;ratioP2
75554;SDS011;66087;53.126;17.960;2024-01-11T00:00:41;23.20;;;7.10;;
75554;SDS011;66087;53.126;17.960;2024-01-11T00:03:28;25.40;;;7.90;;
75554;SDS011;66087;53.126;17.960;2024-01-11T00:05:54;29.60;;;9.30;;
75554;SDS011;66087;53.126;17.960;2024-01-11T00:08:20;26.60;;;9.10;;
75554;SDS011;66087;53.126;17.960;2024-01-11T00:10:46;30.00;;;9.30;;
75554;SDS011;66087;53.126;17.960;2024-01-11T00:13:13;23.30;;;7.40;;
75554;SDS011;66087;53.126;17.960;2024-01-11T00:15:39;26.80;;;8.30;;
75554;SDS011;66087;53.126;17.960;2024-01-11T00:18:05;21.70;;;7.30;;
75554;SDS011;66087;53.126;17.960;2024-01-11T00:20:32;18.20;;;5.40;;
75554;SDS011;66087;53.126;17.960;2024-01-11T00:22:58;25.30;;;6.80;;
75554;SDS011;66087;53.126;17.960;2024-01-11T00:25:25;19.30;;;5.50;;
75554;SDS011;66087;53.126;17.960;2024-01-11T00:27:51;27.70;;;8.00;;
75554;SDS011;66087;53.126;17.960;2024-01-11T00:30:18;18.90;;;5.90;;
75554;SDS011;66087;53.126;17.960;2024-01-11T00:32:44;20.30;;;6.30;;
75554;SDS011;66087;53.126;17.960;2024-01-11T00:35:10;27.40;;;7.30;;
75554;SDS011;66087;53.126;17.960;2024-01-11T00:37:36;27.90;;;7.40;;
75554;SDS011;66087;53.126;17.960;2024-01-11T00:40:03;14.60;;;3.60;;
75554;SDS011;66087;53.126;17.960;2024-01-11T00:42:30;16.10;;;4.90;;
75554;SDS011;66087;53.126;17.960;2024-01-11T00:44:57;17.70;;;4.90;;
75554;SDS011;66087;53.126;17.960;2024-01-11T00:47:23;18.40;;;5.80;;
75554;SDS011;66087;53.126;17.960;2024-01-11T00:49:49;19.00;;;6.00;;
75554;SDS011;66087;53.126;17.960;2024-01-11T00:52:15;25.60;;;6.70;;
75554;SDS011;66087;53.126;17.960;2024-01-11T00:54:42;18.50;;;5.00;;
75554;SDS011;66087;53.126;17.960;2024-01-11T00:57:08;23.80;;;7.00;;
75554;SDS011;66087;53.126;17.960;2024-01-11T00:59:34;29.80;;;8.70;;
75554;SDS011;66087;53.126;17.960;2024-01-11T01:02:01;24.70;;;6.00;;
75554;SDS011;66087;53.126;17.960;2024-01-11T01:04:27;25.50;;;6.80;;
75554;SDS011;66087;53.126;17.960;2024-01-11T01:06:53;22.10;;;7.50;;
75554;SDS011;66087;53.126;17.960;2024-01-11T01:09:19;29.70;;;9.50;;
75554;SDS011;66087;53.126;17.960;2024-01-11T01:11:46;32.80;;;10.10;;
75554;SDS011;66087;53.126;17.960;2024-01-11T01:14:12;29.50;;;9.10;;
75554;SDS011;66087;53.126;17.960;2024-01-11T01:16:38;31.70;;;9.20;;
75554;SDS011;66087;53.126;17.960;2024-01-11T01:19:05;21.20;;;6.80;;
75554;SDS011;66087;53.126;17.960;2024-01-11T01:21:31;11.60;;;3.60;;
75554;SDS011;66087;53.126;17.960;2024-01-11T01:23:57;22.00;;;6.20;;
75554;SDS011;66087;53.126;17.960;2024-01-11T01:26:23;30.50;;;8.80;;
75554;SDS011;66087;53.126;17.960;2024-01-11T01:28:50;25.50;;;8.50;;
75554;SDS011;66087;53.126;17.960;2024-01-11T01:31:16;22.10;;;6.40;;
75554;SDS011;66087;53.126;17.960;2024-01-11T01:33:42;30.30;;;10.30;;
75554;SDS011;66087;53.126;17.960;2024-01-11T01:36:10;28.10;;;8.00;;
75554;SDS011;66087;53.126;17.960;2024-01-11T01:38:36;22.70;;;7.30;;
75554;SDS011;66087;53.126;17.960;2024-01-11T01:41:02;25.70;;;6.80;;
75554;SDS011;66087;53.126;17.960;2024-01-11T01:43:29;23.60;;;6.90;;
75554;SDS011;66087;53.126;17.960;2024-01-11T01:45:55;25.60;;;8.10;;
75554;SDS011;66087;53.126;17.960;2024-01-11T01:48:21;28.70;;;8.80;;
75554;SDS011;66087;53.126;17.960;2024-01-11T01:50:48;25.70;;;6.60;;
75554;SDS011;66087;53.126;17.960;2024-01-11T01:53:18;31.20;;;9.70;;
75554;SDS011;66087;53.126;17.960;2024-01-11T01:55:45;33.50;;;9.90;;
75554;SDS011;66087;53.126;17.960;2024-01-11T01:58:12;29.80;;;8.20;;
75554;SDS011;66087;53.126;17.960;2024-01-11T02:00:38;30.80;;;9.40;;
75554;SDS011;66087;53.126;17.960;2024-01-11T02:03:06;36.10;;;12.10;;
75554;SDS011;66087;53.126;17.960;2024-01-11T02:05:34;34.00;;;10.60;;
75554;SDS011;66087;53.126;17.960;2024-01-11T02:08:00;39.40;;;11.50;;
75554;SDS011;66087;53.126;17.960;2024-01-11T02:10:30;35.20;;;10.00;;
75554;SDS011;66087;53.126;17.960;2024-01-11T02:12:59;36.00;;;11.10;;
75554;SDS011;66087;53.126;17.960;2024-01-11T02:15:25;33.10;;;10.50;;
75554;SDS011;66087;53.126;17.960;2024-01-11T02:17:51;31.40;;;9.60;;
75554;SDS011;66087;53.126;17.960;2024-01-11T02:20:17;34.30;;;10.50;;
75554;SDS011;66087;53.126;17.960;2024-01-11T02:22:46;36.80;;;11.20;;
75554;SDS011;66087;53.126;17.960;2024-01-11T02:25:14;37.80;;;10.60;;
75554;SDS011;66087;53.126;17.960;2024-01-11T02:27:47;38.50;;;11.50;;
75554;SDS011;66087;53.126;17.960;2024-01-11T02:30:14;44.40;;;11.10;;
75554;SDS011;66087;53.126;17.960;2024-01-11T02:32:41;37.10;;;11.00;;
75554;SDS011;66087;53.126;17.960;2024-01-11T02:35:08;32.60;;;9.10;;
75554;SDS011;66087;53.126;17.960;2024-01-11T02:37:36;28.10;;;8.60;;
75554;SDS011;66087;53.126;17.960;2024-01-11T02:40:02;26.80;;;9.70;;
75554;SDS011;66087;53.126;17.960;2024-01-11T02:42:29;26.60;;;8.90;;
75554;SDS011;66087;53.126;17.960;2024-01-11T02:44:55;20.90;;;6.90;;
75554;SDS011;66087;53.126;17.960;2024-01-11T02:47:21;31.90;;;9.70;;
75554;SDS011;66087;53.126;17.960;2024-01-11T02:49:47;31.30;;;9.60;;
75554;SDS011;66087;53.126;17.960;2024-01-11T02:52:13;29.80;;;9.30;;
75554;SDS011;66087;53.126;17.960;2024-01-11T02:54:40;29.60;;;9.60;;
75554;SDS011;66087;53.126;17.960;2024-01-11T02:57:06;24.20;;;7.40;;
75554;SDS011;66087;53.126;17.960;2024-01-11T02:59:32;24.80;;;7.20;;
75554;SDS011;66087;53.126;17.960;2024-01-11T03:01:57;21.90;;;6.20;;
75554;SDS011;66087;53.126;17.960;2024-01-11T03:04:23;21.40;;;6.70;;
75554;SDS011;66087;53.126;17.960;2024-01-11T03:06:49;29.80;;;10.10;;
75554;SDS011;66087;53.126;17.960;2024-01-11T03:09:15;25.60;;;8.10;;
75554;SDS011;66087;53.126;17.960;2024-01-11T03:11:41;16.90;;;5.50;;
75554;SDS011;66087;53.126;17.960;2024-01-11T03:14:07;25.00;;;8.30;;
75554;SDS011;66087;53.126;17.960;2024-01-11T03:16:33;25.70;;;8.90;;
75554;SDS011;66087;53.126;17.960;2024-01-11T03:18:59;21.60;;;7.00;;
75554;SDS011;66087;53.126;17.960;2024-01-11T03:21:26;18.70;;;5.00;;
75554;SDS011;66087;53.126;17.960;2024-01-11T03:23:52;15.10;;;4.40;;
75554;SDS011;66087;53.126;17.960;2024-01-11T03:26:18;30.40;;;10.40;;
75554;SDS011;66087;53.126;17.960;2024-01-11T03:28:44;20.60;;;6.70;;
75554;SDS011;66087;53.126;17.960;2024-01-11T03:31:11;27.60;;;9.40;;
75554;SDS011;66087;53.126;17.960;2024-01-11T03:33:37;25.00;;;8.40;;
75554;SDS011;66087;53.126;17.960;2024-01-11T03:36:07;23.80;;;8.60;;
75554;SDS011;66087;53.126;17.960;2024-01-11T03:38:33;19.40;;;6.40;;
75554;SDS011;66087;53.126;17.960;2024-01-11T03:40:59;34.30;;;9.70;;
75554;SDS011;66087;53.126;17.960;2024-01-11T03:43:25;18.70;;;7.00;;
75554;SDS011;66087;53.126;17.960;2024-01-11T03:45:51;29.90;;;11.00;;
75554;SDS011;66087;53.126;17.960;2024-01-11T03:48:17;35.90;;;11.30;;
75554;SDS011;66087;53.126;17.960;2024-01-11T03:50:43;31.80;;;10.90;;
75554;SDS011;66087;53.126;17.960;2024-01-11T03:53:08;32.80;;;10.50;;
75554;SDS011;66087;53.126;17.960;2024-01-11T03:55:34;30.20;;;11.20;;
75554;SDS011;66087;53.126;17.960;2024-01-11T03:58:00;33.40;;;11.50;;
75554;SDS011;66087;53.126;17.960;2024-01-11T04:00:26;35.20;;;11.00;;
75554;SDS011;66087;53.126;17.960;2024-01-11T04:02:52;34.90;;;12.00;;
75554;SDS011;66087;53.126;17.960;2024-01-11T04:05:18;35.10;;;12.70;;
75554;SDS011;66087;53.126;17.960;2024-01-11T04:07:44;27.10;;;9.10;;
75554;SDS011;66087;53.126;17.960;2024-01-11T04:10:10;25.30;;;8.90;;
75554;SDS011;66087;53.126;17.960;2024-01-11T04:12:36;32.10;;;10.30;;
75554;SDS011;66087;53.126;17.960;2024-01-11T04:15:02;29.90;;;9.80;;
75554;SDS011;66087;53.126;17.960;2024-01-11T04:17:28;29.30;;;9.90;;
75554;SDS011;66087;53.126;17.960;2024-01-11T04:19:54;17.50;;;6.20;;
75554;SDS011;66087;53.126;17.960;2024-01-11T04:22:20;31.90;;;10.50;;
75554;SDS011;66087;53.126;17.960;2024-01-11T04:24:46;20.60;;;6.90;;
75554;SDS011;66087;53.126;17.960;2024-01-11T04:27:12;30.10;;;13.00;;
75554;SDS011;66087;53.126;17.960;2024-01-11T04:29:38;22.60;;;7.60;;
75554;SDS011;66087;53.126;17.960;2024-01-11T04:32:04;27.40;;;9.50;;
75554;SDS011;66087;53.126;17.960;2024-01-11T04:34:30;29.90;;;11.30;;
75554;SDS011;66087;53.126;17.960;2024-01-11T04:36:55;28.40;;;10.10;;
75554;SDS011;66087;53.126;17.960;2024-01-11T04:39:21;24.80;;;9.00;;
75554;SDS011;66087;53.126;17.960;2024-01-11T04:41:47;27.80;;;9.90;;
75554;SDS011;66087;53.126;17.960;2024-01-11T04:44:13;28.40;;;10.10;;
75554;SDS011;66087;53.126;17.960;2024-01-11T04:46:39;32.30;;;11.00;;
75554;SDS011;66087;53.126;17.960;2024-01-11T04:49:05;26.00;;;9.70;;
75554;SDS011;66087;53.126;17.960;2024-01-11T04:51:31;29.50;;;9.60;;
75554;SDS011;66087;53.126;17.960;2024-01-11T04:53:57;29.80;;;10.60;;
75554;SDS011;66087;53.126;17.960;2024-01-11T04:56:22;22.70;;;8.00;;
75554;SDS011;66087;53.126;17.960;2024-01-11T04:58:48;27.40;;;10.70;;
75554;SDS011;66087;53.126;17.960;2024-01-11T05:01:15;31.10;;;11.70;;
75554;SDS011;66087;53.126;17.960;2024-01-11T05:03:42;27.40;;;10.30;;
75554;SDS011;66087;53.126;17.960;2024-01-11T05:06:14;37.60;;;15.80;;
75554;SDS011;66087;53.126;17.960;2024-01-11T05:08:40;30.70;;;11.10;;
75554;SDS011;66087;53.126;17.960;2024-01-11T05:11:06;27.50;;;10.20;;
75554;SDS011;66087;53.126;17.960;2024-01-11T05:13:32;29.70;;;12.20;;
75554;SDS011;66087;53.126;17.960;2024-01-11T05:15:58;31.20;;;10.70;;
75554;SDS011;66087;53.126;17.960;2024-01-11T05:18:24;35.00;;;13.70;;
75554;SDS011;66087;53.126;17.960;2024-01-11T05:20:50;31.40;;;11.90;;
75554;SDS011;66087;53.126;17.960;2024-01-11T05:23:16;32.30;;;11.70;;
75554;SDS011;66087;53.126;17.960;2024-01-11T05:25:42;32.70;;;13.90;;
75554;SDS011;66087;53.126;17.960;2024-01-11T05:28:08;34.20;;;11.90;;
75554;SDS011;66087;53.126;17.960;2024-01-11T05:30:33;32.10;;;11.40;;
75554;SDS011;66087;53.126;17.960;2024-01-11T05:32:59;31.10;;;11.60;;
75554;SDS011;66087;53.126;17.960;2024-01-11T05:35:26;26.70;;;9.70;;
75554;SDS011;66087;53.126;17.960;2024-01-11T05:37:53;32.40;;;12.80;;
75554;SDS011;66087;53.126;17.960;2024-01-11T05:40:20;30.30;;;11.00;;
75554;SDS011;66087;53.126;17.960;2024-01-11T05:42:47;32.70;;;12.40;;
75554;SDS011;66087;53.126;17.960;2024-01-11T05:45:13;28.60;;;11.40;;
75554;SDS011;66087;53.126;17.960;2024-01-11T05:47:42;27.80;;;12.40;;
75554;SDS011;66087;53.126;17.960;2024-01-11T05:50:10;32.60;;;13.30;;
75554;SDS011;66087;53.126;17.960;2024-01-11T05:52:36;28.50;;;10.10;;
75554;SDS011;66087;53.126;17.960;2024-01-11T05:55:02;23.10;;;9.60;;
75554;SDS011;66087;53.126;17.960;2024-01-11T05:57:28;28.50;;;10.70;;
75554;SDS011;66087;53.126;17.960;2024-01-11T05:59:54;28.40;;;11.10;;
75554;SDS011;66087;53.126;17.960;2024-01-11T06:02:20;26.50;;;10.30;;
75554;SDS011;66087;53.126;17.960;2024-01-11T06:04:48;23.40;;;10.40;;
75554;SDS011;66087;53.126;17.960;2024-01-11T06:07:15;26.20;;;10.40;;
75554;SDS011;66087;53.126;17.960;2024-01-11T06:09:43;26.00;;;11.50;;
75554;SDS011;66087;53.126;17.960;2024-01-11T06:12:09;25.40;;;10.10;;
75554;SDS011;66087;53.126;17.960;2024-01-11T06:14:35;27.30;;;11.50;;
75554;SDS011;66087;53.126;17.960;2024-01-11T06:17:01;31.50;;;12.00;;
75554;SDS011;66087;53.126;17.960;2024-01-11T06:19:27;29.00;;;11.00;;
75554;SDS011;66087;53.126;17.960;2024-01-11T06:21:53;30.00;;;11.70;;
75554;SDS011;66087;53.126;17.960;2024-01-11T06:24:19;22.30;;;7.10;;
75554;SDS011;66087;53.126;17.960;2024-01-11T06:26:45;25.80;;;9.80;;
75554;SDS011;66087;53.126;17.960;2024-01-11T06:29:11;21.70;;;8.00;;
75554;SDS011;66087;53.126;17.960;2024-01-11T06:31:37;24.20;;;9.20;;
75554;SDS011;66087;53.126;17.960;2024-01-11T06:34:03;23.60;;;9.60;;
75554;SDS011;66087;53.126;17.960;2024-01-11T06:36:30;29.80;;;11.00;;
75554;SDS011;66087;53.126;17.960;2024-01-11T06:38:57;29.80;;;11.90;;
75554;SDS011;66087;53.126;17.960;2024-01-11T06:41:23;28.00;;;12.20;;
75554;SDS011;66087;53.126;17.960;2024-01-11T06:43:49;21.10;;;8.20;;
75554;SDS011;66087;53.126;17.960;2024-01-11T06:46:19;20.80;;;9.10;;
75554;SDS011;66087;53.126;17.960;2024-01-11T06:48:46;20.80;;;8.60;;
75554;SDS011;66087;53.126;17.960;2024-01-11T06:51:16;18.80;;;8.00;;
75554;SDS011;66087;53.126;17.960;2024-01-11T06:53:42;21.10;;;8.70;;
75554;SDS011;66087;53.126;17.960;2024-01-11T06:56:15;20.50;;;7.70;;
75554;SDS011;66087;53.126;17.960;2024-01-11T06:58:42;27.20;;;9.90;;
75554;SDS011;66087;53.126;17.960;2024-01-11T07:01:08;26.30;;;10.70;;
75554;SDS011;66087;53.126;17.960;2024-01-11T07:03:36;29.90;;;11.40;;
75554;SDS011;66087;53.126;17.960;2024-01-11T07:06:03;37.70;;;15.00;;
75554;SDS011;66087;53.126;17.960;2024-01-11T07:08:32;40.30;;;15.80;;
75554;SDS011;66087;53.126;17.960;2024-01-11T07:11:00;30.40;;;11.90;;
75554;SDS011;66087;53.126;17.960;2024-01-11T07:13:29;25.40;;;10.50;;
75554;SDS011;66087;53.126;17.960;2024-01-11T07:15:57;25.50;;;10.10;;
75554;SDS011;66087;53.126;17.960;2024-01-11T07:18:24;26.20;;;11.10;;
75554;SDS011;66087;53.126;17.960;2024-01-11T07:20:50;28.30;;;10.50;;
75554;SDS011;66087;53.126;17.960;2024-01-11T07:23:17;25.30;;;10.30;;
75554;SDS011;66087;53.126;17.960;2024-01-11T07:25:43;23.60;;;9.50;;
75554;SDS011;66087;53.126;17.960;2024-01-11T07:28:09;21.70;;;9.10;;
75554;SDS011;66087;53.126;17.960;2024-01-11T07:30:37;23.80;;;10.10;;
75554;SDS011;66087;53.126;17.960;2024-01-11T07:33:03;21.80;;;8.20;;
75554;SDS011;66087;53.126;17.960;2024-01-11T07:35:31;26.00;;;9.60;;
75554;SDS011;66087;53.126;17.960;2024-01-11T07:37:57;23.50;;;9.70;;
75554;SDS011;66087;53.126;17.960;2024-01-11T07:40:23;19.90;;;6.10;;
75554;SDS011;66087;53.126;17.960;2024-01-11T07:42:53;24.20;;;9.50;;
75554;SDS011;66087;53.126;17.960;2024-01-11T07:45:57;22.00;;;8.70;;
75554;SDS011;66087;53.126;17.960;2024-01-11T07:48:25;22.40;;;9.30;;
75554;SDS011;66087;53.126;17.960;2024-01-11T07:50:53;25.00;;;10.50;;
75554;SDS011;66087;53.126;17.960;2024-01-11T07:53:19;27.70;;;11.80;;
75554;SDS011;66087;53.126;17.960;2024-01-11T07:55:46;45.10;;;18.10;;
75554;SDS011;66087;53.126;17.960;2024-01-11T07:58:13;42.40;;;16.10;;
75554;SDS011;66087;53.126;17.960;2024-01-11T08:00:41;35.40;;;16.30;;
75554;SDS011;66087;53.126;17.960;2024-01-11T08:03:07;33.50;;;15.00;;
75554;SDS011;66087;53.126;17.960;2024-01-11T08:05:36;34.00;;;13.80;;
75554;SDS011;66087;53.126;17.960;2024-01-11T08:08:02;34.30;;;14.60;;
75554;SDS011;66087;53.126;17.960;2024-01-11T08:10:34;34.00;;;14.30;;
75554;SDS011;66087;53.126;17.960;2024-01-11T08:13:00;25.60;;;11.50;;
75554;SDS011;66087;53.126;17.960;2024-01-11T08:15:26;27.50;;;11.30;;
75554;SDS011;66087;53.126;17.960;2024-01-11T08:17:52;25.70;;;11.80;;
75554;SDS011;66087;53.126;17.960;2024-01-11T08:20:21;25.30;;;10.40;;
75554;SDS011;66087;53.126;17.960;2024-01-11T08:22:51;36.80;;;15.10;;
75554;SDS011;66087;53.126;17.960;2024-01-11T08:25:17;30.90;;;14.00;;
75554;SDS011;66087;53.126;17.960;2024-01-11T08:27:43;27.80;;;11.70;;
75554;SDS011;66087;53.126;17.960;2024-01-11T08:30:09;31.60;;;12.80;;
75554;SDS011;66087;53.126;17.960;2024-01-11T08:32:35;28.70;;;11.90;;
75554;SDS011;66087;53.126;17.960;2024-01-11T08:35:07;29.40;;;13.20;;
75554;SDS011;66087;53.126;17.960;2024-01-11T08:37:35;26.80;;;12.20;;
75554;SDS011;66087;53.126;17.960;2024-01-11T08:40:02;27.50;;;10.50;;
75554;SDS011;66087;53.126;17.960;2024-01-11T08:42:31;29.70;;;12.30;;
75554;SDS011;66087;53.126;17.960;2024-01-11T08:44:57;38.30;;;16.40;;
75554;SDS011;66087;53.126;17.960;2024-01-11T08:47:23;32.30;;;14.10;;
75554;SDS011;66087;53.126;17.960;2024-01-11T08:49:49;38.80;;;14.90;;
75554;SDS011;66087;53.126;17.960;2024-01-11T08:52:15;36.10;;;15.30;;
75554;SDS011;66087;53.126;17.960;2024-01-11T08:54:42;29.40;;;14.00;;
75554;SDS011;66087;53.126;17.960;2024-01-11T08:57:08;25.20;;;10.00;;
75554;SDS011;66087;53.126;17.960;2024-01-11T08:59:40;30.40;;;13.30;;
75554;SDS011;66087;53.126;17.960;2024-01-11T09:02:07;32.60;;;15.40;;
75554;SDS011;66087;53.126;17.960;2024-01-11T09:04:34;33.80;;;14.40;;
75554;SDS011;66087;53.126;17.960;2024-01-11T09:07:00;30.90;;;15.70;;
75554;SDS011;66087;53.126;17.960;2024-01-11T09:09:26;35.60;;;15.60;;
75554;SDS011;66087;53.126;17.960;2024-01-11T09:11:53;26.50;;;11.90;;
75554;SDS011;66087;53.126;17.960;2024-01-11T09:14:21;34.10;;;15.30;;
75554;SDS011;66087;53.126;17.960;2024-01-11T09:16:47;31.10;;;14.10;;
75554;SDS011;66087;53.126;17.960;2024-01-11T09:19:19;23.50;;;11.10;;
75554;SDS011;66087;53.126;17.960;2024-01-11T09:21:54;29.80;;;13.40;;
75554;SDS011;66087;53.126;17.960;2024-01-11T09:24:28;24.00;;;10.80;;
75554;SDS011;66087;53.126;17.960;2024-01-11T09:26:55;27.00;;;12.80;;
75554;SDS011;66087;53.126;17.960;2024-01-11T09:29:22;25.40;;;10.80;;
75554;SDS011;66087;53.126;17.960;2024-01-11T09:31:51;24.10;;;10.30;;
75554;SDS011;66087;53.126;17.960;2024-01-11T09:34:18;27.50;;;13.00;;
75554;SDS011;66087;53.126;17.960;2024-01-11T09:36:46;26.70;;;11.60;;
75554;SDS011;66087;53.126;17.960;2024-01-11T09:39:12;31.40;;;13.10;;
75554;SDS011;66087;53.126;17.960;2024-01-11T09:41:41;28.10;;;12.20;;
75554;SDS011;66087;53.126;17.960;2024-01-11T09:44:10;31.40;;;12.40;;
75554;SDS011;66087;53.126;17.960;2024-01-11T09:46:39;24.90;;;12.40;;
75554;SDS011;66087;53.126;17.960;2024-01-11T09:49:05;28.00;;;11.80;;
75554;SDS011;66087;53.126;17.960;2024-01-11T09:51:31;28.40;;;13.00;;
75554;SDS011;66087;53.126;17.960;2024-01-11T09:54:02;27.30;;;11.30;;
75554;SDS011;66087;53.126;17.960;2024-01-11T09:56:28;28.20;;;12.60;;
75554;SDS011;66087;53.126;17.960;2024-01-11T09:58:54;24.50;;;10.70;;
75554;SDS011;66087;53.126;17.960;2024-01-11T10:01:27;29.20;;;12.40;;
75554;SDS011;66087;53.126;17.960;2024-01-11T10:03:59;34.60;;;15.00;;
75554;SDS011;66087;53.126;17.960;2024-01-11T10:06:32;29.10;;;11.10;;
75554;SDS011;66087;53.126;17.960;2024-01-11T10:08:59;33.60;;;13.10;;
75554;SDS011;66087;53.126;17.960;2024-01-11T10:11:27;30.80;;;13.50;;
75554;SDS011;66087;53.126;17.960;2024-01-11T10:13:56;33.60;;;13.10;;
75554;SDS011;66087;53.126;17.960;2024-01-11T10:16:28;29.00;;;12.40;;
75554;SDS011;66087;53.126;17.960;2024-01-11T10:18:54;24.10;;;8.90;;
75554;SDS011;66087;53.126;17.960;2024-01-11T10:21:22;29.10;;;12.70;;
75554;SDS011;66087;53.126;17.960;2024-01-11T10:23:50;24.90;;;11.40;;
75554;SDS011;66087;53.126;17.960;2024-01-11T10:26:17;21.80;;;9.40;;
75554;SDS011;66087;53.126;17.960;2024-01-11T10:28:48;23.70;;;10.50;;
75554;SDS011;66087;53.126;17.960;2024-01-11T10:31:31;22.50;;;10.10;;
75554;SDS011;66087;53.126;17.960;2024-01-11T10:34:11;22.20;;;10.80;;
75554;SDS011;66087;53.126;17.960;2024-01-11T10:36:41;19.30;;;8.90;;
75554;SDS011;66087;53.126;17.960;2024-01-11T10:39:08;22.20;;;8.00;;
75554;SDS011;66087;53.126;17.960;2024-01-11T10:41:38;20.50;;;9.80;;
75554;SDS011;66087;53.126;17.960;2024-01-11T10:44:07;17.70;;;7.00;;
75554;SDS011;66087;53.126;17.960;2024-01-11T10:46:37;23.30;;;9.80;;
75554;SDS011;66087;53.126;17.960;2024-01-11T10:49:03;20.70;;;9.10;;
75554;SDS011;66087;53.126;17.960;2024-01-11T10:51:31;21.30;;;9.20;;
75554;SDS011;66087;53.126;17.960;2024-01-11T10:54:04;20.40;;;8.60;;
75554;SDS011;66087;53.126;17.960;2024-01-11T10:56:31;23.10;;;9.80;;
75554;SDS011;66087;53.126;17.960;2024-01-11T10:59:00;24.60;;;9.50;;
75554;SDS011;66087;53.126;17.960;2024-01-11T11:01:28;21.20;;;10.00;;
75554;SDS011;66087;53.126;17.960;2024-01-11T11:03:56;23.00;;;10.30;;
75554;SDS011;66087;53.126;17.960;2024-01-11T11:06:26;26.30;;;10.10;;
75554;SDS011;66087;53.126;17.960;2024-01-11T11:09:00;19.70;;;8.40;;
75554;SDS011;66087;53.126;17.960;2024-01-11T11:11:30;15.40;;;7.00;;
75554;SDS011;66087;53.126;17.960;2024-01-11T11:14:00;19.10;;;7.70;;
75554;SDS011;66087;53.126;17.960;2024-01-11T11:16:27;17.20;;;7.50;;
75554;SDS011;66087;53.126;17.960;2024-01-11T11:18:53;13.90;;;6.40;;
75554;SDS011;66087;53.126;17.960;2024-01-11T11:21:20;18.40;;;8.40;;
75554;SDS011;66087;53.126;17.960;2024-01-11T11:23:57;22.00;;;10.60;;
75554;SDS011;66087;53.126;17.960;2024-01-11T11:26:26;22.50;;;10.40;;
75554;SDS011;66087;53.126;17.960;2024-01-11T11:28:53;23.30;;;9.30;;
75554;SDS011;66087;53.126;17.960;2024-01-11T11:33:56;22.00;;;9.60;;
75554;SDS011;66087;53.126;17.960;2024-01-11T11:36:29;21.20;;;8.70;;
75554;SDS011;66087;53.126;17.960;2024-01-11T11:38:57;27.50;;;11.80;;
75554;SDS011;66087;53.126;17.960;2024-01-11T11:41:27;23.70;;;11.30;;
75554;SDS011;66087;53.126;17.960;2024-01-11T11:43:53;18.40;;;7.70;;
75554;SDS011;66087;53.126;17.960;2024-01-11T11:46:19;19.90;;;7.70;;
75554;SDS011;66087;53.126;17.960;2024-01-11T11:48:47;24.50;;;9.50;;
75554;SDS011;66087;53.126;17.960;2024-01-11T11:51:15;22.40;;;10.20;;
75554;SDS011;66087;53.126;17.960;2024-01-11T11:53:42;26.20;;;10.20;;
75554;SDS011;66087;53.126;17.960;2024-01-11T11:56:11;24.80;;;9.70;;
75554;SDS011;66087;53.126;17.960;2024-01-11T11:58:38;23.00;;;8.80;;
75554;SDS011;66087;53.126;17.960;2024-01-11T12:01:05;22.00;;;9.10;;
75554;SDS011;66087;53.126;17.960;2024-01-11T12:03:33;23.60;;;9.90;;
75554;SDS011;66087;53.126;17.960;2024-01-11T12:06:03;19.40;;;8.70;;
75554;SDS011;66087;53.126;17.960;2024-01-11T12:08:29;19.80;;;8.50;;
75554;SDS011;66087;53.126;17.960;2024-01-11T12:10:57;23.80;;;10.20;;
75554;SDS011;66087;53.126;17.960;2024-01-11T12:13:23;23.00;;;9.90;;
75554;SDS011;66087;53.126;17.960;2024-01-11T12:15:51;21.40;;;9.30;;
75554;SDS011;66087;53.126;17.960;2024-01-11T12:18:17;18.30;;;7.80;;
75554;SDS011;66087;53.126;17.960;2024-01-11T12:20:43;15.00;;;6.40;;
75554;SDS011;66087;53.126;17.960;2024-01-11T12:23:09;16.10;;;7.60;;
75554;SDS011;66087;53.126;17.960;2024-01-11T12:25:35;20.20;;;9.40;;
75554;SDS011;66087;53.126;17.960;2024-01-11T12:28:01;18.00;;;8.90;;
75554;SDS011;66087;53.126;17.960;2024-01-11T12:30:28;19.20;;;9.60;;
75554;SDS011;66087;53.126;17.960;2024-01-11T12:32:55;15.80;;;8.00;;
75554;SDS011;66087;53.126;17.960;2024-01-11T12:35:22;21.60;;;9.40;;
75554;SDS011;66087;53.126;17.960;2024-01-11T12:37:55;21.80;;;10.20;;
75554;SDS011;66087;53.126;17.960;2024-01-11T12:40:22;18.70;;;8.00;;
75554;SDS011;66087;53.126;17.960;2024-01-11T12:42:48;19.10;;;8.20;;
75554;SDS011;66087;53.126;17.960;2024-01-11T12:45:16;19.40;;;6.80;;
75554;SDS011;66087;53.126;17.960;2024-01-11T12:47:43;22.70;;;9.50;;
75554;SDS011;66087;53.126;17.960;2024-01-11T12:50:11;15.10;;;6.60;;
75554;SDS011;66087;53.126;17.960;2024-01-11T12:52:38;14.80;;;6.00;;
75554;SDS011;66087;53.126;17.960;2024-01-11T12:55:04;14.80;;;6.00;;
75554;SDS011;66087;53.126;17.960;2024-01-11T12:57:31;14.00;;;6.60;;
75554;SDS011;66087;53.126;17.960;2024-01-11T13:00:08;16.60;;;7.10;;
75554;SDS011;66087;53.126;17.960;2024-01-11T13:02:36;15.90;;;7.40;;
75554;SDS011;66087;53.126;17.960;2024-01-11T13:05:02;17.10;;;7.80;;
75554;SDS011;66087;53.126;17.960;2024-01-11T13:07:28;17.50;;;7.90;;
75554;SDS011;66087;53.126;17.960;2024-01-11T13:09:55;14.50;;;5.90;;
75554;SDS011;66087;53.126;17.960;2024-01-11T13:12:24;13.50;;;5.60;;
75554;SDS011;66087;53.126;17.960;2024-01-11T13:14:58;15.60;;;6.70;;
75554;SDS011;66087;53.126;17.960;2024-01-11T13:17:30;17.40;;;6.50;;
75554;SDS011;66087;53.126;17.960;2024-01-11T13:20:05;13.00;;;5.70;;
75554;SDS011;66087;53.126;17.960;2024-01-11T13:22:33;15.80;;;6.50;;
75554;SDS011;66087;53.126;17.960;2024-01-11T13:24:59;15.50;;;6.60;;
75554;SDS011;66087;53.126;17.960;2024-01-11T13:27:28;16.70;;;7.20;;
75554;SDS011;66087;53.126;17.960;2024-01-11T13:29:56;17.80;;;7.80;;
75554;SDS011;66087;53.126;17.960;2024-01-11T13:32:21;16.70;;;7.40;;
75554;SDS011;66087;53.126;17.960;2024-01-11T13:34:48;15.90;;;6.90;;
75554;SDS011;66087;53.126;17.960;2024-01-11T13:37:14;17.00;;;6.90;;
75554;SDS011;66087;53.126;17.960;2024-01-11T13:39:40;15.10;;;6.50;;
75554;SDS011;66087;53.126;17.960;2024-01-11T13:42:07;19.80;;;8.10;;
75554;SDS011;66087;53.126;17.960;2024-01-11T13:44:35;18.50;;;7.80;;
75554;SDS011;66087;53.126;17.960;2024-01-11T13:47:01;18.50;;;7.30;;
75554;SDS011;66087;53.126;17.960;2024-01-11T13:49:27;16.50;;;6.60;;
75554;SDS011;66087;53.126;17.960;2024-01-11T13:51:53;35.10;;;13.70;;
75554;SDS011;66087;53.126;17.960;2024-01-11T13:54:19;19.10;;;7.90;;
75554;SDS011;66087;53.126;17.960;2024-01-11T13:56:47;32.40;;;12.00;;
75554;SDS011;66087;53.126;17.960;2024-01-11T13:59:13;26.50;;;10.10;;
75554;SDS011;66087;53.126;17.960;2024-01-11T14:01:40;19.60;;;8.10;;
75554;SDS011;66087;53.126;17.960;2024-01-11T14:04:06;21.50;;;8.70;;
75554;SDS011;66087;53.126;17.960;2024-01-11T14:06:33;29.40;;;13.40;;
75554;SDS011;66087;53.126;17.960;2024-01-11T14:08:59;28.00;;;11.10;;
75554;SDS011;66087;53.126;17.960;2024-01-11T14:11:25;30.50;;;13.90;;
75554;SDS011;66087;53.126;17.960;2024-01-11T14:13:52;23.60;;;11.40;;
75554;SDS011;66087;53.126;17.960;2024-01-11T14:16:18;28.20;;;12.40;;
75554;SDS011;66087;53.126;17.960;2024-01-11T14:18:44;30.90;;;13.00;;